createdAt,value
2023-04-07T00:01:44.910Z,4014.25
2023-04-07T00:04:11.781Z,4043.80
2023-04-07T00:06:38.584Z,2939.40
2023-04-07T00:09:05.300Z,3324.20
2023-04-07T00:11:32.119Z,3838.00
2023-04-07T00:13:58.935Z,4011.40
2023-04-07T00:16:27.447Z,4023.25
2023-04-07T00:18:54.207Z,4008.75
2023-04-07T00:21:21.202Z,3765.00
2023-04-07T00:23:48.028Z,3288.20
2023-04-07T00:26:14.817Z,3665.80
2023-04-07T00:28:41.819Z,3239.60
2023-04-07T00:31:08.627Z,3864.80
2023-04-07T00:33:36.936Z,3400.00
2023-04-07T00:36:04.250Z,4040.80
2023-04-07T00:38:31.098Z,4098.60
2023-04-07T00:40:58.396Z,4164.50
2023-04-07T00:43:27.881Z,3599.80
2023-04-07T00:45:54.827Z,3681.40
2023-04-07T00:48:22.323Z,4065.00
2023-04-07T00:50:50.571Z,2502.00
2023-04-07T00:53:17.584Z,3579.80
2023-04-07T00:55:44.599Z,3950.00
2023-04-07T00:58:11.696Z,4075.60
2023-04-07T01:00:45.663Z,2514.80
2023-04-07T01:03:21.979Z,2939.80
2023-04-07T01:05:56.018Z,2731.40
2023-04-07T01:08:30.478Z,2808.40
2023-04-07T01:11:06.079Z,2112.40
2023-04-07T01:13:37.929Z,2903.80
2023-04-07T01:16:11.268Z,1408.00
2023-04-07T01:18:40.699Z,3305.00
2023-04-07T01:21:14.322Z,2785.20
2023-04-07T01:24:01.488Z,2516.00
2023-04-07T01:26:31.074Z,2954.50
2023-04-07T01:29:34.256Z,1308.50
2023-04-07T01:32:04.506Z,2952.60
2023-04-07T01:34:33.117Z,70.20
2023-04-07T01:37:03.013Z,2116.75
2023-04-07T01:39:36.062Z,64.60
2023-04-07T01:42:06.032Z,68.00
2023-04-07T01:44:33.586Z,70.25
2023-04-07T01:47:02.902Z,87.60
2023-04-07T01:49:31.476Z,339.00
2023-04-07T01:51:58.570Z,3891.00
2023-04-07T01:54:26.859Z,2997.00
2023-04-07T01:56:53.692Z,2170.80
2023-04-07T01:59:20.738Z,2447.75
2023-04-07T02:01:48.445Z,2278.00
2023-04-07T02:04:26.110Z,3313.00
2023-04-07T02:06:58.182Z,2558.00
2023-04-07T02:09:28.610Z,396.25
2023-04-07T02:11:57.516Z,334.40
2023-04-07T02:14:25.286Z,87.60
2023-04-07T02:16:53.694Z,74.50
2023-04-07T02:19:23.058Z,106.40
2023-04-07T02:21:52.442Z,94.80
2023-04-07T02:24:20.498Z,101.40
2023-04-07T02:26:47.311Z,90.75
2023-04-07T02:29:14.386Z,70.00
2023-04-07T02:31:41.159Z,70.75
2023-04-07T02:34:07.938Z,97.00
2023-04-07T02:36:36.286Z,92.00
2023-04-07T02:39:03.256Z,91.40
2023-04-07T02:41:30.268Z,94.80
2023-04-07T02:43:57.403Z,97.25
2023-04-07T02:46:24.613Z,100.60
2023-04-07T02:48:51.640Z,95.80
2023-04-07T02:51:18.720Z,103.40
2023-04-07T02:53:47.386Z,99.40
2023-04-07T02:56:16.744Z,93.80
2023-04-07T02:58:44.082Z,98.80
2023-04-07T03:01:11.139Z,100.60
2023-04-07T03:03:38.117Z,95.75
2023-04-07T03:06:05.142Z,116.00
2023-04-07T03:08:32.209Z,101.25
2023-04-07T03:11:00.404Z,96.50
2023-04-07T03:13:27.160Z,97.00
2023-04-07T03:15:54.564Z,92.40
2023-04-07T03:18:21.503Z,92.40
2023-04-07T03:20:48.872Z,89.00
2023-04-07T03:23:16.099Z,1337.00
2023-04-07T03:25:42.906Z,86.25
2023-04-07T03:28:11.578Z,88.50
2023-04-07T03:30:38.401Z,95.25
2023-04-07T03:33:05.863Z,98.40
2023-04-07T03:35:32.683Z,97.20
2023-04-07T03:37:59.604Z,101.25
2023-04-07T03:40:26.630Z,92.75
2023-04-07T03:42:54.723Z,96.80
2023-04-07T03:45:23.426Z,98.00
2023-04-07T03:47:50.477Z,101.50
2023-04-07T03:50:17.559Z,100.20
2023-04-07T03:52:44.257Z,94.80
2023-04-07T03:55:11.036Z,106.00
2023-04-07T03:57:38.168Z,98.00
2023-04-07T04:00:06.534Z,96.75
2023-04-07T04:02:35.192Z,103.50
2023-04-07T04:05:02.015Z,84.40
2023-04-07T04:07:29.855Z,91.20
2023-04-07T04:09:56.851Z,92.25
2023-04-07T04:12:23.650Z,94.00
2023-04-07T04:14:52.978Z,92.00
2023-04-07T04:17:19.820Z,95.75
2023-04-07T04:19:48.138Z,99.25
2023-04-07T04:22:15.560Z,101.50
2023-04-07T04:24:42.542Z,102.75
2023-04-07T04:27:09.841Z,101.50
2023-04-07T04:29:36.744Z,99.25
2023-04-07T04:32:03.471Z,99.00
2023-04-07T04:34:31.733Z,202.25
2023-04-07T04:37:00.805Z,90.20
2023-04-07T04:39:27.571Z,92.50
2023-04-07T04:41:54.866Z,89.00
2023-04-07T04:44:23.502Z,282.25
2023-04-07T04:46:50.565Z,54.75
2023-04-07T04:49:17.339Z,47.00
2023-04-07T04:51:44.135Z,79.50
2023-04-07T04:54:12.406Z,93.40
2023-04-07T04:56:40.443Z,62.00
2023-04-07T04:59:07.230Z,76.40
2023-04-07T05:01:35.357Z,102.40
2023-04-07T05:04:02.350Z,106.20
2023-04-07T05:06:29.207Z,114.40
2023-04-07T05:08:56.077Z,41.00
2023-04-07T05:11:24.525Z,39.00
2023-04-07T05:13:51.784Z,46.80
2023-04-07T05:16:18.800Z,72.25
2023-04-07T05:18:45.870Z,32.33
2023-04-07T05:21:12.663Z,28.00
2023-04-07T05:23:39.589Z,36.33
2023-04-07T05:26:07.754Z,25.67
2023-04-07T05:28:36.443Z,18.67
2023-04-07T05:31:05.729Z,31.67
2023-04-07T05:33:34.810Z,23.00
2023-04-07T05:36:01.590Z,57.50
2023-04-07T05:38:29.651Z,52.50
2023-04-07T05:40:56.692Z,93.00
2023-04-07T05:43:23.726Z,91.60
2023-04-07T05:45:52.107Z,61.00
2023-04-07T05:48:19.211Z,71.50
2023-04-07T05:50:46.295Z,100.40
2023-04-07T05:53:13.064Z,58.75
2023-04-07T05:55:43.029Z,48.67
2023-04-07T05:58:09.742Z,31.00
2023-04-07T06:00:36.797Z,96.20
2023-04-07T06:03:05.765Z,58.75
2023-04-07T06:05:33.452Z,57.50
2023-04-07T06:08:00.374Z,41.67
2023-04-07T06:10:27.887Z,102.20
2023-04-07T06:12:55.106Z,2619.75
2023-04-07T06:15:22.895Z,231.00
2023-04-07T06:17:49.655Z,127.00
2023-04-07T06:20:18.063Z,282.60
2023-04-07T06:22:45.868Z,69.80
2023-04-07T06:25:12.671Z,514.00
2023-04-07T06:27:39.863Z,90.80
2023-04-07T06:30:08.678Z,709.00
2023-04-07T06:32:35.727Z,916.00
2023-04-07T06:35:03.057Z,94.80
2023-04-07T06:37:31.423Z,3790.60
2023-04-07T06:39:58.371Z,1235.40
2023-04-07T06:42:25.593Z,1062.80
2023-04-07T06:44:53.088Z,903.60
2023-04-07T06:47:19.880Z,335.40
2023-04-07T06:49:46.581Z,2960.25
2023-04-07T06:52:13.596Z,3910.20
2023-04-07T06:54:41.957Z,4025.25
2023-04-07T06:57:09.440Z,3964.40
2023-04-07T06:59:43.635Z,4013.00
2023-04-07T07:02:10.730Z,4003.75
2023-04-07T07:04:37.852Z,3960.00
2023-04-07T07:07:04.741Z,3923.67
2023-04-07T07:09:34.125Z,3885.80
2023-04-07T07:12:03.991Z,3938.00
2023-04-07T07:14:31.373Z,3886.25
2023-04-07T07:16:58.527Z,3856.00
2023-04-07T07:19:25.756Z,3846.50
2023-04-07T07:21:53.427Z,3829.50
2023-04-07T07:24:20.518Z,3743.00
2023-04-07T07:26:47.843Z,3783.40
2023-04-07T07:29:16.596Z,3744.60
2023-04-07T07:31:46.701Z,3738.00
2023-04-07T07:34:13.426Z,3719.60
2023-04-07T07:36:40.505Z,3705.20
2023-04-07T07:39:07.784Z,3652.20
2023-04-07T07:41:34.834Z,3050.40
2023-04-07T07:44:01.650Z,3657.00
2023-04-07T07:46:31.802Z,1835.80
2023-04-07T07:48:58.786Z,3335.20
2023-04-07T07:51:25.922Z,3633.60
2023-04-07T07:53:53.813Z,1138.80
2023-04-07T07:56:20.857Z,821.40
2023-04-07T07:58:48.382Z,171.50
2023-04-07T08:01:15.534Z,369.20
2023-04-07T08:03:45.115Z,60.20
2023-04-07T08:06:13.397Z,407.40
2023-04-07T08:08:40.569Z,416.20
2023-04-07T08:11:07.423Z,696.25
2023-04-07T08:13:37.419Z,63.60
2023-04-07T08:16:04.862Z,73.60
2023-04-07T08:18:31.713Z,622.80
2023-04-07T08:21:00.007Z,276.80
2023-04-07T08:23:27.034Z,128.80
2023-04-07T08:25:54.032Z,65.80
2023-04-07T08:28:24.407Z,69.20
2023-04-07T08:30:51.148Z,342.20
2023-04-07T08:33:17.868Z,86.75
2023-04-07T08:35:45.042Z,90.75
2023-04-07T08:38:13.333Z,85.75
2023-04-07T08:40:40.562Z,412.80
2023-04-07T08:43:09.985Z,58.00
2023-04-07T08:45:40.532Z,64.75
2023-04-07T08:48:16.078Z,64.20
2023-04-07T08:50:45.619Z,77.00
2023-04-07T08:53:18.886Z,130.25
2023-04-07T08:55:45.982Z,46.25
2023-04-07T08:58:14.882Z,49.00
2023-04-07T09:00:44.004Z,37.75
2023-04-07T09:03:11.986Z,18.00
2023-04-07T09:05:39.308Z,19.50
2023-04-07T09:08:06.415Z,39.50
2023-04-07T09:10:36.558Z,4.75
2023-04-07T09:13:03.414Z,4.25
2023-04-07T09:15:31.426Z,5.50
2023-04-07T09:17:58.789Z,1.50
2023-04-07T09:20:25.867Z,3.00
2023-04-07T09:22:52.628Z,5.00
2023-04-07T09:25:21.235Z,9.00
2023-04-07T09:28:03.888Z,4.25
2023-04-07T09:30:32.526Z,3.50
2023-04-07T09:33:00.590Z,3.25
2023-04-07T09:35:27.647Z,7.50
2023-04-07T09:38:05.505Z,5.00
2023-04-07T09:40:33.107Z,7.50
2023-04-07T09:43:02.891Z,11.00
2023-04-07T09:45:35.435Z,3.75
2023-04-07T09:48:06.824Z,6.00
2023-04-07T09:50:34.747Z,6.75
2023-04-07T09:53:02.045Z,6.00
2023-04-07T09:55:29.102Z,2.75
2023-04-07T09:57:55.909Z,6.50
2023-04-07T10:00:24.847Z,3.00
2023-04-07T10:02:53.266Z,8.50
2023-04-07T10:05:21.379Z,2.25
2023-04-07T10:07:48.758Z,3.50
2023-04-07T10:10:16.422Z,3.00
2023-04-07T10:12:44.361Z,1.00
2023-04-07T10:15:13.210Z,2.75
2023-04-07T10:17:45.663Z,2.75
2023-04-07T10:20:13.689Z,3.50
2023-04-07T10:22:42.594Z,1.00
2023-04-07T10:25:12.320Z,3.50
2023-04-07T10:27:43.441Z,4.00
2023-04-07T10:30:15.954Z,3.00
2023-04-07T10:32:50.598Z,3.25
2023-04-07T10:35:18.972Z,1.25
2023-04-07T10:38:11.449Z,2.25
2023-04-07T10:40:39.031Z,3.00
2023-04-07T10:43:07.198Z,2.50
2023-04-07T10:45:58.365Z,2.75
2023-04-07T10:48:27.591Z,2.25
2023-04-07T10:51:14.990Z,3.25
2023-04-07T10:54:15.778Z,4.60
2023-04-07T10:57:08.317Z,3.00
2023-04-07T10:59:35.473Z,3.00
2023-04-07T11:02:35.477Z,2.00
2023-04-07T11:05:04.766Z,4.00
2023-04-07T11:07:55.331Z,3.50
2023-04-07T11:10:23.438Z,3.00
2023-04-07T11:13:06.294Z,4.00
2023-04-07T11:15:34.730Z,2.50
2023-04-07T11:18:23.451Z,3.00
2023-04-07T11:20:54.559Z,2.00
2023-04-07T11:23:22.854Z,0.25
2023-04-07T11:25:52.499Z,2.75
2023-04-07T11:28:20.430Z,1.00
2023-04-07T11:30:50.921Z,2.75
2023-04-07T11:33:20.739Z,2.25
2023-04-07T11:36:05.342Z,2.50
2023-04-07T11:38:37.617Z,3.50
2023-04-07T11:41:14.226Z,1.60
2023-04-07T11:43:42.554Z,2.00
2023-04-07T11:46:11.879Z,1.00
2023-04-07T11:48:41.096Z,2.80
2023-04-07T11:51:17.512Z,2.00
2023-04-07T11:53:45.837Z,2.00
2023-04-07T11:56:15.845Z,1.75
2023-04-07T11:58:49.811Z,0.75
2023-04-07T12:01:16.967Z,0.75
2023-04-07T12:03:57.983Z,3.00
2023-04-07T12:06:34.309Z,1.20
2023-04-07T12:09:03.207Z,0.40
2023-04-07T12:11:37.459Z,1.80
2023-04-07T12:14:08.451Z,1.00
2023-04-07T12:16:40.428Z,1.00
2023-04-07T12:19:09.823Z,2.00
2023-04-07T12:21:39.838Z,1.00
2023-04-07T12:24:07.345Z,0.00
2023-04-07T12:26:35.052Z,0.00
2023-04-07T12:29:02.462Z,0.00
2023-04-07T12:31:29.976Z,0.00
2023-04-07T12:33:57.687Z,0.00
2023-04-07T12:36:24.603Z,0.80
2023-04-07T12:38:54.982Z,0.20
2023-04-07T12:41:22.625Z,0.00
2023-04-07T12:43:51.099Z,0.00
2023-04-07T12:46:18.998Z,0.00
2023-04-07T12:48:47.914Z,1.00
2023-04-07T12:51:15.832Z,1.75
2023-04-07T12:53:43.617Z,0.00
2023-04-07T12:56:12.759Z,0.00
2023-04-07T12:58:40.835Z,0.40
2023-04-07T13:01:08.105Z,0.00
2023-04-07T13:03:36.559Z,0.25
2023-04-07T13:06:05.432Z,0.00
2023-04-07T13:08:32.240Z,0.00
2023-04-07T13:10:59.770Z,0.00
2023-04-07T13:13:28.928Z,0.00
2023-04-07T13:15:55.845Z,0.25
2023-04-07T13:18:23.530Z,0.00
2023-04-07T13:21:03.018Z,1.75
2023-04-07T13:23:43.371Z,2.00
2023-04-07T13:26:17.156Z,1.00
2023-04-07T13:28:46.028Z,1.00
2023-04-07T13:31:13.689Z,1.20
2023-04-07T13:33:41.104Z,0.25
2023-04-07T13:36:08.636Z,1.00
2023-04-07T13:38:36.393Z,2.25
2023-04-07T13:41:03.492Z,2.00
2023-04-07T13:43:31.401Z,0.50
2023-04-07T13:46:03.102Z,1.75
2023-04-07T13:48:31.692Z,0.50
2023-04-07T13:51:00.210Z,0.00
2023-04-07T13:53:27.877Z,1.00
2023-04-07T13:56:00.745Z,0.00
2023-04-07T13:58:31.630Z,1.40
2023-04-07T14:01:01.574Z,2.50
2023-04-07T14:03:29.241Z,4.00
2023-04-07T14:05:56.875Z,0.60
2023-04-07T14:08:24.789Z,1.25
2023-04-07T14:10:53.649Z,1.75
2023-04-07T14:13:21.109Z,0.75
2023-04-07T14:15:49.036Z,1.00
2023-04-07T14:18:18.437Z,1.00
2023-04-07T14:20:46.007Z,1.00
2023-04-07T14:23:16.648Z,0.00
2023-04-07T14:25:47.965Z,1.20
2023-04-07T14:28:15.441Z,0.60
2023-04-07T14:30:42.857Z,1.00
2023-04-07T14:33:11.052Z,0.00
2023-04-07T14:35:40.600Z,0.40
2023-04-07T14:38:09.141Z,0.00
2023-04-07T14:40:36.621Z,1.00
2023-04-07T14:43:07.391Z,1.00
2023-04-07T14:45:36.629Z,0.80
2023-04-07T14:48:04.630Z,0.00
2023-04-07T14:50:33.747Z,0.80
2023-04-07T14:53:02.055Z,0.40
2023-04-07T14:55:29.386Z,0.00
2023-04-07T14:57:58.612Z,0.00
2023-04-07T15:00:26.830Z,0.00
2023-04-07T15:02:56.131Z,2.00
2023-04-07T15:05:24.018Z,0.75
2023-04-07T15:07:53.916Z,0.00
2023-04-07T15:10:23.938Z,0.00
2023-04-07T15:12:51.667Z,0.00
2023-04-07T15:15:19.362Z,0.00
2023-04-07T15:17:46.164Z,2.50
2023-04-07T15:20:13.805Z,2.00
2023-04-07T15:22:41.932Z,7.75
2023-04-07T15:25:10.066Z,0.25
2023-04-07T15:27:39.452Z,0.00
2023-04-07T15:30:08.678Z,0.40
2023-04-07T15:32:36.079Z,0.80
2023-04-07T15:35:03.925Z,1.00
2023-04-07T15:37:35.196Z,0.00
2023-04-07T15:40:03.163Z,0.80
2023-04-07T15:42:30.826Z,0.40
2023-04-07T15:44:59.873Z,0.40
2023-04-07T15:47:29.121Z,0.60
2023-04-07T15:49:56.950Z,1.00
2023-04-07T15:52:28.905Z,0.00
2023-04-07T15:54:56.565Z,1.00
2023-04-07T15:57:24.027Z,1.00
2023-04-07T15:59:51.690Z,0.00
2023-04-07T16:02:20.213Z,0.00
2023-04-07T16:04:49.281Z,0.00
2023-04-07T16:07:17.168Z,0.00
2023-04-07T16:09:44.880Z,0.00
2023-04-07T16:12:12.527Z,0.00
2023-04-07T16:14:40.129Z,0.00
2023-04-07T16:17:08.074Z,1.00
2023-04-07T16:19:39.800Z,0.00
2023-04-07T16:22:07.576Z,0.00
2023-04-07T16:24:36.030Z,1.00
2023-04-07T16:27:04.378Z,2.00
2023-04-07T16:29:32.686Z,0.00
2023-04-07T16:32:03.040Z,1.75
2023-04-07T16:34:30.645Z,0.20
2023-04-07T16:36:59.679Z,0.00
2023-04-07T16:39:29.276Z,0.00
2023-04-07T16:41:57.427Z,0.00
2023-04-07T16:44:27.394Z,0.00
2023-04-07T16:46:55.910Z,0.00
2023-04-07T16:49:24.029Z,1.00
2023-04-07T16:51:51.438Z,0.20
2023-04-07T16:54:21.539Z,0.25
2023-04-07T16:56:50.551Z,1.20
2023-04-07T16:59:19.131Z,0.00
2023-04-07T17:01:47.390Z,0.00
2023-04-07T17:04:16.323Z,0.00
2023-04-07T17:06:43.881Z,1.00
2023-04-07T17:09:11.442Z,3.00
2023-04-07T17:11:41.895Z,0.80
2023-04-07T17:14:09.542Z,0.00
2023-04-07T17:16:37.489Z,4.60
2023-04-07T17:19:05.417Z,0.00
2023-04-07T17:21:32.284Z,2.40
2023-04-07T17:23:59.717Z,2.50
2023-04-07T17:26:27.166Z,2.25
2023-04-07T17:28:56.553Z,1.00
2023-04-07T17:31:24.438Z,0.00
2023-04-07T17:33:52.047Z,1.00
2023-04-07T17:36:20.359Z,1.25
2023-04-07T17:38:48.132Z,2.00
2023-04-07T17:41:15.376Z,1.00
2023-04-07T17:43:42.940Z,1.25
2023-04-07T17:46:12.346Z,2.00
2023-04-07T17:48:41.676Z,4.00
2023-04-07T17:51:09.826Z,1.50
2023-04-07T17:53:37.837Z,1.25
2023-04-07T17:56:05.982Z,2.00
2023-04-07T17:58:34.010Z,5.25
2023-04-07T18:01:01.771Z,5.00
2023-04-07T18:03:36.451Z,1.00
2023-04-07T18:06:04.254Z,1.75
2023-04-07T18:08:31.982Z,0.00
2023-04-07T18:10:59.617Z,2.00
2023-04-07T18:13:26.768Z,0.00
2023-04-07T18:15:54.600Z,0.00
2023-04-07T18:18:22.674Z,2.00
2023-04-07T18:20:52.321Z,1.00
2023-04-07T18:23:20.175Z,1.00
2023-04-07T18:25:48.295Z,4.00
2023-04-07T18:28:15.859Z,0.50
2023-04-07T18:30:44.452Z,0.00
2023-04-07T18:33:14.450Z,0.00
2023-04-07T18:35:43.778Z,2.33
2023-04-07T18:38:12.112Z,4.50
2023-04-07T18:40:41.445Z,14.25
2023-04-07T18:43:08.945Z,32.50
2023-04-07T18:45:36.591Z,13.00
2023-04-07T18:48:04.889Z,1.00
2023-04-07T18:50:33.040Z,2.00
2023-04-07T18:53:00.795Z,1.00
2023-04-07T18:55:31.249Z,3.00
2023-04-07T18:57:58.445Z,3.25
2023-04-07T19:00:25.743Z,14.50
2023-04-07T19:02:56.870Z,4.75
2023-04-07T19:05:26.180Z,14.75
2023-04-07T19:07:53.478Z,8.00
2023-04-07T19:10:22.263Z,6.00
2023-04-07T19:12:53.172Z,3.75
2023-04-07T19:15:20.460Z,3.75
2023-04-07T19:17:48.191Z,5.50
2023-04-07T19:20:15.091Z,5.75
2023-04-07T19:22:43.402Z,10.50
2023-04-07T19:25:11.100Z,1.50
2023-04-07T19:27:38.737Z,5.00
2023-04-07T19:30:09.048Z,2.50
2023-04-07T19:32:37.047Z,7.25
2023-04-07T19:35:05.009Z,3.00
2023-04-07T19:37:32.826Z,1.00
2023-04-07T19:40:03.242Z,27.00
2023-04-07T19:42:30.451Z,18.50
2023-04-07T19:44:58.531Z,5.00
2023-04-07T19:47:29.336Z,25.50
2023-04-07T19:49:56.176Z,10.25
2023-04-07T19:52:23.088Z,9.00
2023-04-07T19:54:52.102Z,15.50
2023-04-07T19:57:19.739Z,31.75
2023-04-07T19:59:46.918Z,19.75
2023-04-07T20:02:14.263Z,54.25
2023-04-07T20:04:44.025Z,9.25
2023-04-07T20:07:11.933Z,9.75
2023-04-07T20:09:39.707Z,25.00
2023-04-07T20:12:07.236Z,2.00
2023-04-07T20:14:34.854Z,30.50
2023-04-07T20:17:02.647Z,27.25
2023-04-07T20:19:30.041Z,42.75
2023-04-07T20:21:59.208Z,69.00
2023-04-07T20:24:26.674Z,28.25
2023-04-07T20:26:53.926Z,37.75
2023-04-07T20:29:22.331Z,36.50
2023-04-07T20:31:50.086Z,47.00
2023-04-07T20:34:17.181Z,52.50
2023-04-07T20:36:44.992Z,38.00
2023-04-07T20:39:13.798Z,19.00
2023-04-07T20:41:41.206Z,28.50
2023-04-07T20:44:08.861Z,31.25
2023-04-07T20:46:35.740Z,30.75
2023-04-07T20:49:03.666Z,23.75
2023-04-07T20:51:31.696Z,42.75
2023-04-07T20:53:59.607Z,36.00
2023-04-07T20:56:28.023Z,39.00
2023-04-07T20:58:55.745Z,33.50
2023-04-07T21:01:23.212Z,34.75
2023-04-07T21:03:50.057Z,34.50
2023-04-07T21:06:18.591Z,35.50
2023-04-07T21:08:45.440Z,33.00
2023-04-07T21:11:13.284Z,34.25
2023-04-07T21:13:43.154Z,40.25
2023-04-07T21:16:12.548Z,40.25
2023-04-07T21:18:39.908Z,42.75
2023-04-07T21:21:07.764Z,37.50
2023-04-07T21:23:35.211Z,33.50
2023-04-07T21:26:02.527Z,33.00
2023-04-07T21:28:30.569Z,30.75
2023-04-07T21:30:59.907Z,28.00
2023-04-07T21:33:27.260Z,28.50
2023-04-07T21:35:55.083Z,28.50
2023-04-07T21:38:22.989Z,31.25
2023-04-07T21:40:50.450Z,34.25
2023-04-07T21:43:18.133Z,23.75
2023-04-07T21:45:45.899Z,24.75
2023-04-07T21:48:14.452Z,24.75
2023-04-07T21:50:42.568Z,25.75
2023-04-07T21:53:09.835Z,67.00
2023-04-07T21:55:37.360Z,128.67
2023-04-07T21:58:04.274Z,73.00
2023-04-07T22:00:31.746Z,46.50
2023-04-07T22:02:58.712Z,24.00
2023-04-07T22:05:28.043Z,20.75
2023-04-07T22:07:55.676Z,20.75
2023-04-07T22:10:24.642Z,20.00
2023-04-07T22:12:52.402Z,20.50
2023-04-07T22:15:20.218Z,17.00
2023-04-07T22:17:47.677Z,10.25
2023-04-07T22:20:15.619Z,10.50
2023-04-07T22:22:44.559Z,8.50
2023-04-07T22:25:12.716Z,9.50
2023-04-07T22:27:40.109Z,11.25
2023-04-07T22:30:08.938Z,12.50
2023-04-07T22:32:37.201Z,20.00
2023-04-07T22:35:05.265Z,25.75
2023-04-07T22:37:32.926Z,14.00
2023-04-07T22:40:04.220Z,20.25
2023-04-07T22:42:31.630Z,16.25
2023-04-07T22:44:59.459Z,10.25
2023-04-07T22:47:27.691Z,12.00
2023-04-07T22:49:54.698Z,9.25
2023-04-07T22:52:21.867Z,12.00
2023-04-07T22:54:49.960Z,10.00
2023-04-07T22:57:19.308Z,9.50
2023-04-07T22:59:46.888Z,9.25
2023-04-07T23:02:15.358Z,10.00
2023-04-07T23:04:43.401Z,11.50
2023-04-07T23:07:10.672Z,12.50
2023-04-07T23:09:38.293Z,11.75
2023-04-07T23:12:05.995Z,9.50
2023-04-07T23:14:34.255Z,16.00
2023-04-07T23:17:03.205Z,14.00
2023-04-07T23:19:30.857Z,9.00
2023-04-07T23:21:58.681Z,14.00
2023-04-07T23:24:26.573Z,12.00
2023-04-07T23:26:53.805Z,13.00
2023-04-07T23:29:21.354Z,12.00
2023-04-07T23:31:51.578Z,7.75
2023-04-07T23:34:18.873Z,9.50
2023-04-07T23:36:46.570Z,9.00
2023-04-07T23:39:13.517Z,10.25
2023-04-07T23:41:41.329Z,11.00
2023-04-07T23:44:08.952Z,13.50
2023-04-07T23:46:36.108Z,11.75
2023-04-07T23:49:05.079Z,12.50
2023-04-07T23:51:32.413Z,14.50
2023-04-07T23:54:00.245Z,15.50
2023-04-07T23:56:27.593Z,10.75
2023-04-07T23:58:55.011Z,22.00
